createdAt,value
2018-06-24T00:02:01.380Z,9.80
2018-06-24T00:04:30.893Z,9.80
2018-06-24T00:07:00.664Z,9.80
2018-06-24T00:09:30.223Z,9.90
2018-06-24T00:12:00.194Z,9.90
2018-06-24T00:14:29.942Z,10.00
2018-06-24T00:16:59.640Z,10.20
2018-06-24T00:19:29.485Z,10.20
2018-06-24T00:21:59.272Z,10.20
2018-06-24T00:24:29.102Z,10.30
2018-06-24T00:26:58.618Z,10.20
2018-06-24T00:29:28.354Z,10.20
2018-06-24T00:31:58.040Z,10.20
2018-06-24T00:36:56.512Z,10.10
2018-06-24T00:39:26.222Z,10.00
2018-06-24T00:41:55.847Z,10.00
2018-06-24T00:44:25.332Z,9.90
2018-06-24T00:46:55.045Z,9.80
2018-06-24T00:51:53.736Z,9.70
2018-06-24T00:54:24.135Z,9.60
2018-06-24T00:56:53.789Z,9.50
2018-06-24T00:59:33.854Z,9.40
2018-06-24T01:02:03.452Z,9.30
2018-06-24T01:04:33.150Z,9.20
2018-06-24T01:07:02.917Z,9.10
2018-06-24T01:09:32.618Z,9.10
2018-06-24T01:12:02.527Z,9.20
2018-06-24T01:14:32.203Z,9.10
2018-06-24T01:17:02.158Z,9.00
2018-06-24T01:19:32.559Z,8.80
2018-06-24T01:22:02.124Z,8.70
2018-06-24T01:24:31.850Z,8.60
2018-06-24T01:27:01.537Z,8.60
2018-06-24T01:29:32.531Z,8.40
2018-06-24T01:32:02.432Z,8.30
2018-06-24T01:34:32.406Z,8.20
2018-06-24T01:37:02.378Z,8.10
2018-06-24T01:39:32.898Z,8.10
2018-06-24T01:42:02.799Z,8.10
2018-06-24T01:44:32.389Z,8.20
2018-06-24T01:47:02.193Z,8.20
2018-06-24T01:49:31.763Z,8.20
2018-06-24T01:52:01.779Z,8.30
2018-06-24T01:54:31.761Z,8.40
2018-06-24T01:57:01.500Z,8.50
2018-06-24T02:02:00.614Z,8.80
2018-06-24T02:04:30.498Z,8.90
2018-06-24T02:07:00.454Z,9.00
2018-06-24T02:09:30.765Z,9.10
2018-06-24T02:12:00.270Z,9.10
2018-06-24T02:14:30.248Z,9.10
2018-06-24T02:17:00.019Z,9.10
2018-06-24T02:19:29.647Z,9.20
2018-06-24T02:21:59.429Z,9.20
2018-06-24T02:24:29.167Z,9.30
2018-06-24T02:26:58.990Z,9.40
2018-06-24T02:29:28.604Z,9.50
2018-06-24T02:31:59.830Z,9.60
2018-06-24T02:34:29.732Z,9.70
2018-06-24T02:36:59.905Z,9.70
2018-06-24T02:39:29.880Z,9.80
2018-06-24T02:42:00.377Z,9.80
2018-06-24T02:46:59.398Z,9.90
2018-06-24T02:49:28.934Z,10.00
2018-06-24T02:51:59.059Z,10.00
2018-06-24T02:54:30.019Z,10.00
2018-06-24T02:56:59.718Z,10.00
2018-06-24T02:59:29.407Z,10.10
2018-06-24T03:01:59.812Z,10.20
2018-06-24T03:04:29.574Z,10.10
2018-06-24T03:06:59.335Z,10.10
2018-06-24T03:09:29.122Z,10.10
2018-06-24T03:11:59.274Z,10.10
2018-06-24T03:14:29.715Z,10.20
2018-06-24T03:17:00.869Z,10.10
2018-06-24T03:21:59.352Z,10.10
2018-06-24T03:24:29.014Z,10.20
2018-06-24T03:26:58.707Z,10.10
2018-06-24T03:29:28.306Z,10.00
2018-06-24T03:31:58.120Z,10.00
2018-06-24T03:34:28.353Z,9.90
2018-06-24T03:36:57.960Z,9.90
2018-06-24T03:39:28.062Z,9.80
2018-06-24T03:44:27.906Z,9.90
2018-06-24T03:46:57.395Z,10.00
2018-06-24T03:49:27.745Z,10.10
2018-06-24T03:51:57.606Z,10.10
2018-06-24T03:54:27.816Z,10.10
2018-06-24T03:56:57.585Z,10.20
2018-06-24T03:59:28.057Z,10.30
2018-06-24T04:01:57.698Z,10.40
2018-06-24T04:04:27.165Z,10.60
2018-06-24T04:06:57.072Z,10.60
2018-06-24T04:09:27.750Z,10.60
2018-06-24T04:11:57.371Z,10.70
2018-06-24T04:16:56.080Z,10.90
2018-06-24T04:19:26.154Z,11.00
2018-06-24T04:21:55.692Z,11.00
2018-06-24T04:24:25.664Z,11.10
2018-06-24T04:26:55.090Z,11.10
2018-06-24T04:29:24.804Z,11.10
2018-06-24T04:31:54.346Z,11.10
2018-06-24T04:34:24.086Z,11.20
2018-06-24T04:36:53.648Z,11.30
2018-06-24T04:39:23.537Z,11.50
2018-06-24T04:41:53.168Z,11.50
2018-06-24T04:44:23.692Z,11.50
2018-06-24T04:46:53.278Z,11.50
2018-06-24T04:49:22.794Z,11.60
2018-06-24T04:51:52.375Z,11.80
2018-06-24T04:54:22.402Z,12.00
2018-06-24T04:56:52.079Z,12.10
2018-06-24T04:59:21.661Z,12.30
2018-06-24T05:01:51.264Z,12.40
2018-06-24T05:04:20.903Z,12.50
2018-06-24T05:06:50.542Z,12.40
2018-06-24T05:09:20.925Z,12.50
2018-06-24T05:11:50.775Z,12.30
2018-06-24T05:14:20.577Z,12.40
2018-06-24T05:16:51.334Z,12.30
2018-06-24T05:19:21.426Z,12.40
2018-06-24T05:21:51.036Z,12.50
2018-06-24T05:24:20.583Z,12.40
2018-06-24T05:26:50.729Z,12.40
2018-06-24T05:29:20.469Z,12.30
2018-06-24T05:31:50.032Z,12.40
2018-06-24T05:34:19.636Z,12.40
2018-06-24T05:36:49.343Z,12.70
2018-06-24T05:39:19.001Z,12.80
2018-06-24T05:41:48.668Z,12.80
2018-06-24T05:44:18.152Z,13.10
2018-06-24T05:46:47.665Z,13.30
2018-06-24T05:52:01.179Z,13.50
2018-06-24T05:54:30.966Z,13.80
2018-06-24T05:57:00.983Z,13.40
2018-06-24T05:59:30.783Z,13.50
2018-06-24T06:02:00.229Z,13.70
2018-06-24T06:04:29.706Z,13.80
2018-06-24T06:06:59.652Z,13.90
2018-06-24T06:09:29.392Z,13.80
2018-06-24T06:11:58.922Z,13.70
2018-06-24T06:14:28.633Z,13.80
2018-06-24T06:16:58.160Z,13.90
2018-06-24T06:19:27.838Z,14.20
2018-06-24T06:21:57.559Z,14.40
2018-06-24T06:24:27.059Z,14.40
2018-06-24T06:26:56.430Z,14.40
2018-06-24T06:29:25.875Z,14.40
2018-06-24T06:31:55.804Z,14.30
2018-06-24T06:34:25.120Z,14.60
2018-06-24T06:36:54.789Z,14.90
2018-06-24T06:39:24.672Z,15.10
2018-06-24T06:41:54.626Z,15.30
2018-06-24T06:44:24.136Z,14.90
2018-06-24T06:46:54.130Z,14.80
2018-06-24T06:49:23.652Z,14.90
2018-06-24T06:51:53.196Z,14.70
2018-06-24T06:54:22.550Z,14.70
2018-06-24T06:56:53.148Z,14.60
2018-06-24T06:59:22.909Z,15.00
2018-06-24T07:01:52.515Z,14.90
2018-06-24T07:04:22.126Z,15.00
2018-06-24T07:06:51.894Z,15.00
2018-06-24T07:09:21.825Z,14.80
2018-06-24T07:11:51.267Z,14.70
2018-06-24T07:14:20.869Z,14.70
2018-06-24T07:16:50.432Z,15.00
2018-06-24T07:19:19.914Z,15.20
2018-06-24T07:21:49.222Z,15.60
2018-06-24T07:24:18.994Z,16.40
2018-06-24T07:26:48.318Z,16.80
2018-06-24T07:29:17.589Z,16.90
2018-06-24T07:31:46.915Z,17.30
2018-06-24T07:34:16.842Z,17.20
2018-06-24T07:36:46.299Z,18.00
2018-06-24T07:39:15.737Z,19.30
2018-06-24T07:41:45.253Z,18.90
2018-06-24T07:46:43.959Z,19.50
2018-06-24T07:49:13.283Z,18.70
2018-06-24T07:51:42.904Z,18.00
2018-06-24T07:54:12.425Z,19.50
2018-06-24T07:56:42.460Z,21.20
2018-06-24T07:59:12.002Z,19.60
2018-06-24T08:01:41.900Z,20.00
2018-06-24T08:04:11.100Z,19.50
2018-06-24T08:06:40.828Z,18.90
2018-06-24T08:09:11.937Z,18.60
2018-06-24T08:11:42.239Z,18.80
2018-06-24T08:14:11.756Z,19.30
2018-06-24T08:16:41.261Z,19.10
2018-06-24T08:21:39.735Z,18.60
2018-06-24T08:24:09.354Z,18.10
2018-06-24T08:26:38.969Z,18.70
2018-06-24T08:29:08.486Z,18.60
2018-06-24T08:31:37.950Z,20.30
2018-06-24T08:34:08.048Z,18.50
2018-06-24T08:36:37.669Z,17.00
2018-06-24T08:39:09.143Z,17.20
2018-06-24T08:41:39.059Z,17.80
2018-06-24T08:44:09.284Z,18.60
2018-06-24T08:46:39.255Z,19.10
2018-06-24T08:49:08.872Z,18.80
2018-06-24T08:51:38.378Z,18.60
2018-06-24T08:54:07.987Z,18.60
2018-06-24T08:56:37.552Z,18.10
2018-06-24T08:59:07.167Z,17.30
2018-06-24T09:01:36.775Z,17.30
2018-06-24T09:04:05.917Z,17.90
2018-06-24T09:06:35.042Z,18.70
2018-06-24T09:09:06.278Z,19.20
2018-06-24T09:11:35.735Z,19.10
2018-06-24T09:14:05.218Z,19.10
2018-06-24T09:16:34.818Z,18.90
2018-06-24T09:19:04.983Z,18.40
2018-06-24T09:21:34.340Z,17.80
2018-06-24T09:24:03.789Z,17.50
2018-06-24T09:26:33.319Z,17.10
2018-06-24T09:29:02.864Z,17.30
2018-06-24T09:31:32.598Z,17.90
2018-06-24T09:34:02.126Z,18.20
2018-06-24T09:36:31.774Z,18.70
2018-06-24T09:39:01.258Z,18.20
2018-06-24T09:41:30.906Z,17.80
2018-06-24T09:44:01.098Z,17.50
2018-06-24T09:46:30.738Z,17.40
2018-06-24T09:49:00.492Z,17.20
2018-06-24T09:51:30.081Z,17.40
2018-06-24T09:54:01.099Z,17.60
2018-06-24T09:56:31.162Z,17.60
2018-06-24T09:59:00.810Z,17.50
2018-06-24T10:01:30.355Z,17.70
2018-06-24T10:03:59.901Z,18.20
2018-06-24T10:06:29.444Z,18.40
2018-06-24T10:08:58.899Z,17.90
2018-06-24T10:11:28.624Z,17.70
2018-06-24T10:13:58.097Z,17.60
2018-06-24T10:16:27.779Z,17.30
2018-06-24T10:18:57.279Z,17.00
2018-06-24T10:21:26.774Z,16.90
2018-06-24T10:23:55.988Z,17.20
2018-06-24T10:26:25.370Z,17.30
2018-06-24T10:28:55.548Z,17.50
2018-06-24T10:31:25.385Z,17.60
2018-06-24T10:33:55.305Z,18.20
2018-06-24T10:36:24.661Z,18.30
2018-06-24T10:38:54.208Z,18.20
2018-06-24T10:41:25.009Z,18.20
2018-06-24T10:43:54.460Z,19.20
2018-06-24T10:46:23.830Z,19.10
2018-06-24T10:48:53.303Z,19.30
2018-06-24T10:51:22.742Z,18.80
2018-06-24T10:53:52.132Z,19.40
2018-06-24T10:56:21.773Z,20.10
2018-06-24T10:58:51.090Z,19.40
2018-06-24T11:01:20.952Z,19.20
2018-06-24T11:03:50.440Z,19.60
2018-06-24T11:06:20.054Z,20.00
2018-06-24T11:08:49.464Z,21.00
2018-06-24T11:11:19.118Z,20.70
2018-06-24T11:13:49.403Z,20.20
2018-06-24T11:16:19.397Z,19.40
2018-06-24T11:18:49.002Z,19.80
2018-06-24T11:21:18.688Z,20.10
2018-06-24T11:23:48.299Z,20.20
2018-06-24T11:26:18.056Z,19.70
2018-06-24T11:31:17.061Z,19.70
2018-06-24T11:33:47.314Z,19.90
2018-06-24T11:36:17.030Z,20.00
2018-06-24T11:38:46.677Z,20.20
2018-06-24T11:41:16.344Z,19.80
2018-06-24T11:43:45.949Z,18.80
2018-06-24T11:46:15.615Z,18.40
2018-06-24T11:48:45.527Z,18.60
2018-06-24T11:51:15.301Z,18.70
2018-06-24T11:53:44.763Z,19.00
2018-06-24T11:56:14.360Z,19.20
2018-06-24T11:58:44.016Z,19.10
2018-06-24T12:01:13.906Z,19.00
2018-06-24T12:03:43.559Z,19.40
2018-06-24T12:06:13.403Z,19.60
2018-06-24T12:08:43.295Z,19.10
2018-06-24T12:11:12.933Z,19.20
2018-06-24T12:13:42.710Z,19.30
2018-06-24T12:16:12.571Z,19.40
2018-06-24T12:18:42.422Z,19.00
2018-06-24T12:21:12.235Z,18.90
2018-06-24T12:23:42.359Z,18.60
2018-06-24T12:26:12.065Z,18.70
2018-06-24T12:28:41.801Z,18.90
2018-06-24T12:31:11.410Z,19.00
2018-06-24T12:33:41.094Z,19.20
2018-06-24T12:36:10.936Z,19.40
2018-06-24T12:38:40.560Z,19.30
2018-06-24T12:41:10.809Z,19.10
2018-06-24T12:43:41.346Z,19.70
2018-06-24T12:46:11.006Z,20.20
2018-06-24T12:48:40.885Z,20.40
2018-06-24T12:51:10.658Z,20.10
2018-06-24T12:53:40.346Z,20.00
2018-06-24T12:56:09.951Z,20.70
2018-06-24T12:58:39.928Z,21.40
2018-06-24T13:01:09.902Z,23.10
2018-06-24T13:03:39.581Z,23.40
2018-06-24T13:06:09.805Z,23.90
2018-06-24T13:08:39.633Z,22.70
2018-06-24T13:11:09.241Z,22.40
2018-06-24T13:13:39.051Z,22.80
2018-06-24T13:16:08.912Z,22.70
2018-06-24T13:21:39.060Z,22.40
2018-06-24T13:24:08.804Z,20.90
2018-06-24T13:26:38.615Z,20.70
2018-06-24T13:29:08.470Z,20.40
2018-06-24T13:31:38.332Z,20.60
2018-06-24T13:34:08.175Z,20.50
2018-06-24T13:36:37.796Z,20.80
2018-06-24T13:39:09.940Z,21.00
2018-06-24T13:41:39.951Z,20.40
2018-06-24T13:44:10.375Z,19.90
2018-06-24T13:46:40.106Z,19.20
2018-06-24T13:49:09.647Z,19.00
2018-06-24T13:51:39.196Z,19.20
2018-06-24T13:54:08.871Z,19.30
2018-06-24T13:56:38.804Z,19.00
2018-06-24T13:59:08.371Z,18.90
2018-06-24T14:01:38.113Z,18.80
2018-06-24T14:04:08.135Z,18.70
2018-06-24T14:06:37.571Z,18.70
2018-06-24T14:09:10.501Z,19.00
2018-06-24T14:11:40.511Z,19.40
2018-06-24T14:14:10.787Z,19.50
2018-06-24T14:16:40.460Z,20.00
2018-06-24T14:19:10.821Z,20.10
2018-06-24T14:21:40.759Z,20.20
2018-06-24T14:24:10.418Z,20.60
2018-06-24T14:26:40.094Z,21.00
2018-06-24T14:29:09.771Z,21.30
2018-06-24T14:31:39.735Z,22.30
2018-06-24T14:34:10.021Z,22.40
2018-06-24T14:36:39.818Z,21.60
2018-06-24T14:39:10.978Z,22.50
2018-06-24T14:41:41.186Z,21.90
2018-06-24T14:44:11.444Z,22.00
2018-06-24T14:46:41.425Z,21.60
2018-06-24T14:49:11.169Z,22.10
2018-06-24T14:51:40.923Z,22.20
2018-06-24T14:54:11.911Z,21.20
2018-06-24T14:56:42.432Z,20.90
2018-06-24T14:59:12.432Z,20.40
2018-06-24T15:01:42.227Z,20.40
2018-06-24T15:04:13.008Z,20.40
2018-06-24T15:06:42.884Z,20.40
2018-06-24T15:09:13.164Z,20.30
2018-06-24T15:11:42.972Z,20.20
2018-06-24T15:14:12.702Z,20.20
2018-06-24T15:16:42.361Z,20.00
2018-06-24T15:19:12.035Z,19.80
2018-06-24T15:21:41.849Z,20.20
2018-06-24T15:24:11.875Z,21.00
2018-06-24T15:26:41.730Z,21.80
2018-06-24T15:29:11.763Z,22.80
2018-06-24T15:31:42.635Z,23.70
2018-06-24T15:34:12.605Z,22.50
2018-06-24T15:36:42.997Z,21.90
2018-06-24T15:39:13.880Z,21.30
2018-06-24T15:41:44.920Z,20.80
2018-06-24T15:44:14.642Z,20.70
2018-06-24T15:46:45.615Z,20.50
2018-06-24T15:49:15.440Z,20.20
2018-06-24T15:51:45.749Z,20.30
2018-06-24T15:54:15.712Z,20.30
2018-06-24T15:56:45.446Z,20.10
2018-06-24T16:01:44.930Z,19.70
2018-06-24T16:04:15.264Z,19.60
2018-06-24T16:06:45.707Z,19.30
2018-06-24T16:09:15.873Z,19.30
2018-06-24T16:11:45.667Z,19.50
2018-06-24T16:14:15.640Z,19.50
2018-06-24T16:16:46.370Z,19.50
2018-06-24T16:19:16.073Z,19.50
2018-06-24T16:21:45.808Z,19.40
2018-06-24T16:24:15.944Z,19.40
2018-06-24T16:26:45.660Z,19.40
2018-06-24T16:29:15.690Z,19.40
2018-06-24T16:31:45.253Z,19.50
2018-06-24T16:34:15.349Z,19.60
2018-06-24T16:36:45.106Z,19.30
2018-06-24T16:39:15.088Z,19.30
2018-06-24T16:41:44.858Z,19.30
2018-06-24T16:44:15.199Z,19.30
2018-06-24T16:46:44.958Z,19.30
2018-06-24T16:49:15.676Z,19.20
2018-06-24T16:51:45.518Z,19.00
2018-06-24T16:54:15.418Z,19.00
2018-06-24T16:59:14.510Z,18.80
2018-06-24T17:01:44.360Z,18.50
2018-06-24T17:04:14.149Z,18.30
2018-06-24T17:06:44.127Z,18.20
2018-06-24T17:09:13.987Z,18.20
2018-06-24T17:11:43.931Z,18.20
2018-06-24T17:14:13.794Z,18.20
2018-06-24T17:16:43.786Z,18.20
2018-06-24T17:19:13.524Z,18.20
2018-06-24T17:21:43.322Z,18.20
2018-06-24T17:24:12.958Z,18.20
2018-06-24T17:26:42.622Z,18.20
2018-06-24T17:29:13.164Z,18.10
2018-06-24T17:31:42.861Z,18.10
2018-06-24T17:34:12.728Z,18.10
2018-06-24T17:36:42.384Z,18.10
2018-06-24T17:39:13.162Z,18.00
2018-06-24T17:41:46.230Z,18.10
2018-06-24T17:44:16.521Z,18.00
2018-06-24T17:46:46.407Z,18.00
2018-06-24T17:49:16.016Z,17.90
2018-06-24T17:51:46.024Z,17.90
2018-06-24T17:54:16.106Z,17.90
2018-06-24T17:56:45.712Z,17.80
2018-06-24T17:59:15.481Z,17.80
2018-06-24T18:01:45.565Z,17.70
2018-06-24T18:04:15.886Z,17.70
2018-06-24T18:06:45.703Z,17.60
2018-06-24T18:09:15.588Z,17.60
2018-06-24T18:11:45.329Z,17.60
2018-06-24T18:14:15.127Z,17.50
2018-06-24T18:16:44.998Z,17.50
2018-06-24T18:19:14.915Z,17.40
2018-06-24T18:21:45.373Z,17.40
2018-06-24T18:24:15.399Z,17.40
2018-06-24T18:26:45.409Z,17.30
2018-06-24T18:29:15.257Z,17.30
2018-06-24T18:31:45.081Z,17.20
2018-06-24T18:34:15.535Z,17.20
2018-06-24T18:36:45.622Z,17.10
2018-06-24T18:39:16.129Z,17.00
2018-06-24T18:41:46.031Z,17.00
2018-06-24T18:44:16.126Z,17.00
2018-06-24T18:46:46.163Z,17.00
2018-06-24T18:49:15.918Z,17.00
2018-06-24T18:51:45.769Z,16.90
2018-06-24T18:54:16.026Z,16.90
2018-06-24T18:56:46.094Z,16.80
2018-06-24T18:59:15.962Z,16.70
2018-06-24T19:01:46.020Z,16.70
2018-06-24T19:04:16.777Z,16.70
2018-06-24T19:09:17.371Z,16.60
2018-06-24T19:11:48.784Z,16.50
2018-06-24T19:14:18.796Z,16.50
2018-06-24T19:16:48.833Z,16.40
2018-06-24T19:19:18.788Z,16.40
2018-06-24T19:21:48.669Z,16.40
2018-06-24T19:24:19.297Z,16.30
2018-06-24T19:26:49.539Z,16.30
2018-06-24T19:29:19.415Z,16.30
2018-06-24T19:31:50.630Z,16.20
2018-06-24T19:34:20.356Z,16.20
2018-06-24T19:36:50.578Z,16.10
2018-06-24T19:39:20.023Z,16.10
2018-06-24T19:41:50.279Z,16.10
2018-06-24T19:44:20.575Z,16.10
2018-06-24T19:46:50.567Z,16.00
2018-06-24T19:49:20.443Z,16.00
2018-06-24T19:51:50.304Z,16.00
2018-06-24T19:54:20.612Z,16.00
2018-06-24T19:56:50.677Z,16.00
2018-06-24T19:59:20.463Z,16.00
2018-06-24T20:01:50.485Z,16.00
2018-06-24T20:04:20.451Z,16.00
2018-06-24T20:06:50.694Z,16.00
2018-06-24T20:09:21.702Z,15.90
2018-06-24T20:11:51.916Z,15.90
2018-06-24T20:14:21.803Z,15.80
2018-06-24T20:16:52.197Z,15.80
2018-06-24T20:19:22.287Z,15.70
2018-06-24T20:21:53.236Z,15.70
2018-06-24T20:24:23.033Z,15.70
2018-06-24T20:26:53.340Z,15.70
2018-06-24T20:29:23.192Z,15.70
2018-06-24T20:31:53.113Z,15.70
2018-06-24T20:34:22.866Z,15.70
2018-06-24T20:36:52.738Z,15.60
2018-06-24T20:39:22.517Z,15.60
2018-06-24T20:41:54.343Z,15.60
2018-06-24T20:44:24.703Z,15.50
2018-06-24T20:46:54.353Z,15.50
2018-06-24T20:49:24.344Z,15.50
2018-06-24T20:54:23.610Z,15.40
2018-06-24T20:56:53.025Z,15.30
2018-06-24T20:59:22.724Z,15.30
2018-06-24T21:01:53.117Z,15.20
2018-06-24T21:04:22.826Z,15.20
2018-06-24T21:06:52.981Z,15.20
2018-06-24T21:09:22.687Z,15.10
2018-06-24T21:11:52.967Z,15.10
2018-06-24T21:14:22.627Z,15.10
2018-06-24T21:16:52.454Z,15.10
2018-06-24T21:19:22.016Z,15.10
2018-06-24T21:21:50.952Z,15.00
2018-06-24T21:24:25.070Z,14.90
2018-06-24T21:26:54.575Z,14.90
2018-06-24T21:29:24.207Z,14.90
2018-06-24T21:31:53.873Z,14.90
2018-06-24T21:34:23.693Z,14.80
2018-06-24T21:36:53.546Z,14.80
2018-06-24T21:39:23.243Z,14.70
2018-06-24T21:41:53.231Z,14.70
2018-06-24T21:44:22.872Z,14.70
2018-06-24T21:46:52.852Z,14.60
2018-06-24T21:49:22.932Z,14.60
2018-06-24T21:51:53.382Z,14.60
2018-06-24T21:54:23.133Z,14.60
2018-06-24T21:56:52.731Z,14.60
2018-06-24T21:59:22.342Z,14.50
2018-06-24T22:01:51.997Z,14.50
2018-06-24T22:04:21.801Z,14.50
2018-06-24T22:06:51.346Z,14.50
2018-06-24T22:09:20.750Z,14.50
2018-06-24T22:11:50.350Z,14.50
2018-06-24T22:14:19.807Z,14.50
2018-06-24T22:16:49.320Z,14.50
2018-06-24T22:19:18.830Z,14.50
2018-06-24T22:21:48.336Z,14.50
2018-06-24T22:24:18.128Z,14.50
2018-06-24T22:26:47.739Z,14.50
2018-06-24T22:29:17.777Z,14.50
2018-06-24T22:31:47.404Z,14.40
2018-06-24T22:36:48.084Z,14.40
2018-06-24T22:39:18.021Z,14.40
2018-06-24T22:41:47.972Z,14.30
2018-06-24T22:44:17.336Z,14.30
2018-06-24T22:46:46.751Z,14.30
2018-06-24T22:49:16.340Z,14.30
2018-06-24T22:51:46.198Z,14.30
2018-06-24T22:54:16.117Z,14.30
2018-06-24T22:56:45.561Z,14.20
2018-06-24T22:59:26.028Z,14.20
2018-06-24T23:01:56.205Z,14.10
2018-06-24T23:04:25.990Z,14.10
2018-06-24T23:06:55.532Z,14.00
2018-06-24T23:09:25.296Z,14.00
2018-06-24T23:11:54.707Z,14.00
2018-06-24T23:14:24.456Z,14.00
2018-06-24T23:16:54.345Z,14.00
2018-06-24T23:19:23.944Z,13.90
2018-06-24T23:21:53.529Z,13.90
2018-06-24T23:24:23.753Z,13.80
2018-06-24T23:26:53.334Z,13.90
2018-06-24T23:29:23.164Z,13.90
2018-06-24T23:31:53.067Z,13.80
2018-06-24T23:34:22.622Z,13.80
2018-06-24T23:36:52.742Z,13.80
2018-06-24T23:39:22.183Z,13.70
2018-06-24T23:41:51.861Z,13.70
2018-06-24T23:44:21.575Z,13.70
2018-06-24T23:49:20.712Z,13.70
2018-06-24T23:51:50.403Z,13.60
2018-06-24T23:54:20.058Z,13.60
2018-06-24T23:56:49.916Z,13.60
2018-06-24T23:59:19.730Z,13.60
